BSGM7: Big Sugar Creek near Powell, MO

                                SHEF ID:       BSGM7     Big Sugar Creek near Powell, MO
STATION TYPE:

PRECIP STAGE RIV-FLOW VOLTAGE BAT-LOAD
in ft cfs volt volt
Ccp-Rev Ccp-Rev Ccp-Rev Ccp-Rev Ccp-Rev
(America/Chicago)
06/10 00:00 0.00 7.47 721 12.82 12.11
06/10 01:00 0.00 7.43 704 12.80 12.08
06/10 02:00 0.00 7.38 683 12.78 12.06
06/10 03:00 0.00 7.33 663 12.76 11.98
06/10 04:00 0.00 7.29 647 12.73 12.00
06/10 05:00 0.00 7.24 627 12.73 12.00
06/10 06:00 0.00 7.21 615 12.72 11.98
06/10 07:00 0.00 7.16 596 12.80 11.98
06/10 08:00 0.00 7.11 577 13.67 12.71
06/10 09:00 0.00 7.08 566 13.97 12.97
06/10 10:00 0.00 7.05 555 13.95 12.70
06/10 11:00 0.00 7.02 544 13.91 12.54
06/10 12:00 0.00 6.97 526 13.45 12.63
06/10 13:00 0.00 6.94 515 13.42 12.57
06/10 14:00 0.00 6.91 505 13.37 12.50
06/10 15:00 0.00 6.87 491 13.35 12.34
06/10 16:00 0.00 6.84 481 13.27 12.41
06/10 17:00 0.00 6.79 464 13.28 12.24
06/10 18:00 0.00 6.76 454 13.25 12.20
06/10 19:00 0.00 6.73 444 13.00 12.19
06/10 20:00 0.00 6.70 435 12.91 12.15
06/10 21:00 0.00 6.67 425 12.89 12.04
06/10 22:00 0.00 6.64 416 12.88 12.11
06/10 23:00 ---- ---- ---- ---- ----
Data processed at Thu 11Jun2026 04:30 GMT

NOTICE: If you are parsing this page

Please convert to using our Data API. Starting early 2026 we will be migrating to: https://water.usace.army.mil with modern pages rendered in JavaScript. When this migration completes you will no longer be able to scrape this page! CWMSDataAPI (CDA)

Timeseries IDs (TSIDs)

TSIDs used from left to right in the data table
POWE.Precip-Inc.Total.1Hour.1Hour.Ccp-Rev
POWE.Stage.Inst.1Hour.0.Ccp-Rev
POWE.Flow.Inst.1Hour.0.Ccp-Rev
POWE.Volt-Battery.Inst.1Hour.0.Ccp-Rev
POWE.Volt-Battery Load.Inst.1Hour.0.Ccp-Rev

                            

All information presented herein is the property of the government of the United States of America and may be revised or deleted at any time without prior notice. Dissemination of this information without the expressed written consent of the Public Affairs Office, Tulsa District U.S. Army Corps of Engineers is strictly prohibited. These data are gathered electronically and, as presented, have NOT undergone any form of quality control. These data are NOT guaranteed to be valid or correct.